Die Präsentation wird geladen. Bitte warten

Die Präsentation wird geladen. Bitte warten

Porto Heli / Hydra Flugreise mit N5RZ Juni/Juli 2003 Ingrid Leo Rudolf.

Ähnliche Präsentationen


Präsentation zum Thema: "Porto Heli / Hydra Flugreise mit N5RZ Juni/Juli 2003 Ingrid Leo Rudolf."—  Präsentation transkript:

1 Porto Heli / Hydra Flugreise mit N5RZ Juni/Juli 2003 Ingrid Leo Rudolf

2

3 Vorbereitung: Reservierung N5RZ / Beech A36 TP Destination: Porto Heli Kontaktaufnahme Alexis Alexiou alal@otenet.gralal@otenet.gr; F: +30210 3635543 Aero Club of Porto Heli (Air Heli) Informat.suche bzgl. Griechenland (AOPA,Jeppesen, Bottlang, Fliegerkollegen Jürgen, Michael, Elmar) Wetterbriefing /PC met Meteo vorbereitung Notams (www.eddh.de)

4 LOI H Hohenems/Dor nbirn 210900Z 211019 25008G18KT 9999 SCT030 BKN070 BECMG 1012 SCT040TCU BKN070 TEMPO 1119 28016G30KT TSRA SCT040CB BKN060= LSZ R Altenrhein 210900Z 211019 VRB03KT 9999 FEW040 SCT090 PROB40 TEMPO 1019 25010G25KT 4500 TSRA SCT030CB BKN040= EDN Y Friedrichshafen 211500Z 211622 16006KT 9999 SCT030 TEMPO 1622 TSRA BKN020CB PROB40 TEMPO 1622 24020G40KT 4000 TSTAGR= LIPB Bolzano 211700Z 211803 VRB06KT 9999 SCT050 TEMPO 1824 6000 TSRA SCT035CB BKN050 BKN090= LIPS Treviso/Istrana 211700Z 211803 04005KT CAVOK TEMPO FEW020CB SCT030= LIPA Aviano 211700Z 211803 03007KT 9999 FEW050 SCT090 PROB40 TEMPO 1803 5000 TSRA SCT030CB BKN060= LIPH Treviso/S.Ange lo 211700Z 211803 04005KT CAVOK TEMPO FEW020CB SCT030= LIPZ Venezia/Tesse ra 211700Z 211803 14007KT CAVOK TEMPO 1824 FEW020CB= LDP L Pula/Intl 211500Z 211601 24006KT CAVOK BECMG 1719 VRB03KT= LDL O Mali Losinj 211200Z 211322 26006KT CAVOK BECMG 1719 VRB03KT= LGK R Kerkyra 211500Z 211601 32010KT CAVOK= TAF-FT-Vorhersagen LIPA Aviano 211600Z 220018 03006KT 9999 FEW050 PROB30 TEMPO 0004 5000 TSRA SCT030CB BKN040 TEMPO 1218 SCT030CB SCT090 = LIY W Aviano/USAF 211211 22009KT 9999 SCT050 SCT250 QNH2996INS BECMG 1819 20008KT 9999 BKN050 BKN100 BKN250 QNH3000INS TEMPO 2204 22015G25KT 8000 -TSRA BKN050CB BECMG 0405 05005KT 9999 SCT050 SCT100 BKN200 QNH3003INS T32/15Z T23/03Z AMD 1255 LAST NO AMDS AFT 2111 NEXT 2119= LIPZ Venezia/Tesse ra 210400Z 211206 15010KT CAVOK TEMPO 1317 SCT030 BECMG 2022 34005KT= LDP L Pula/Intl 211600Z 220018 VRB03KT CAVOK BECMG 0810 15006KT TEMPO 1216 9999 FEW040=

5 Berechnung Fliegerdaten: Gewicht: 2669 lbs (Eigengewicht N5RZ) Passagiere: Pilot 154 lbs Copilot 165 lbs Passagier 132 lbs Gepäck 50 lbs Fuel: 139 Gallons 931 lbs TOW 4101 lbs Performance: 25 Gallons/Stunde Flugzeit volle Tanks = 5 ½ Stunden minus 45 Minuten Reserve +20 Minuten Alternate Berechnete Flugzeit LOIH-LGKR: 03:40 Flugfläche 150 über die Alpen: Sauerstoffbedarf f. 3 Personen:checked FPL-N5RZ-ZG BE36/L-S/C, LOIH1200, NO165VFR ALGOI/NO165F150 IFR J25 INN M726 BZO L12 CHI L612 ANC L612 BRD A14 TIGRA LGKR0340 LGIO, RMK/PIC Rudolf, IFPS AMENDMENT ACCEPTED DOF/030619

6 26.6.2003 Met report: Andelsbuch: Nebel, Sicht 100m, kalt. Met report: Kerkira (Korfu): wolkenlos, 26 Grad. Wir starten um 07Uhr Lokalzeit in Hohenems, sind bereits auf Frequenz 119.92, Zürich Radar, Flugfläche 100 (ca. 3000m), Richtung Meldepunkt Algoi Richtung Innsbruck. Zürich Radar, good morning, N5RZ. Just departet from LOIH, 5 miles west inbound to ALGOI, 8000 ft climbing, squak 7000, request joing IFR at Algoi, destination LGKR. N5RZ identified, squak 2356, cleared to LGKR, via filed route, FL 150, IFR starts at time.

7 Ingrid noch ein wenig verschlafen und nachdenklich – dies wird sich bald ändern!

8 ...hinter uns die Alpen!

9 ...wenn gleich zwei die Karte studieren, muß die Navigation schon passen.

10 ...langsam werden wir hungrig, das tiefblaue Meer unter uns, jetzt ein guter Fisch!? – leider nur Economy food.

11 Italienische Ostküste Richtung Brindisi

12 Landeanflug LGKR (KORFU)

13 Handling in Korfu (Bestechungsversuch mit Würstel/Brot)

14

15 Flugfläche 100, TAS 160 Knoten, Torque 65, TOT 750 Grad, auf Kurs 135 Grad Richtung Porto Heli

16 Anflug auf Porto Heli, Landung auf LGHL

17 Flieger parken, kurzes Meeting mit Flugplatzeigner Alexis Ankunft auf Hydra

18 Hafenansicht von Hydra


Herunterladen ppt "Porto Heli / Hydra Flugreise mit N5RZ Juni/Juli 2003 Ingrid Leo Rudolf."

Ähnliche Präsentationen


Google-Anzeigen